Time;durP1;ratioP1;P1;durP2;ratioP2;P2;SDS_P1;SDS_P2;PMS_P1;PMS_P2;Temp;Humidity;BMP_temperature;BMP_pressure;BME280_temperature;BME280_humidity;BME280_pressure;Samples;Min_cycle;Max_cycle;Signal;HPM_P1;HPM_P2
2022/03/17 00:00:11;;;;;;;22.80;14.57;;;11.50;99.90;;;;;;5108937;28;20043;-64
2022/03/17 00:02:37;;;;;;;20.85;13.43;;;10.90;99.90;;;;;;5114758;28;20035;-64
2022/03/17 00:05:04;;;;;;;23.88;14.68;;;11.00;99.90;;;;;;5113795;28;20036;-64
2022/03/17 00:07:30;;;;;;;21.17;13.70;;;11.00;99.90;;;;;;5114419;28;20050;-63
2022/03/17 00:09:57;;;;;;;19.25;13.27;;;10.70;99.90;;;;;;5113034;28;20047;-63
2022/03/17 00:12:23;;;;;;;21.42;13.68;;;10.90;99.90;;;;;;5106380;27;20047;-63
2022/03/17 00:14:51;;;;;;;21.65;14.02;;;10.60;99.90;;;;;;5094144;28;20498;-63
2022/03/17 00:17:17;;;;;;;22.67;14.98;;;;;;;;;;5092643;28;20115;-64
2022/03/17 00:19:42;;;;;;;22.45;14.70;;;10.70;99.90;;;;;;5092136;28;20048;-63
2022/03/17 00:22:08;;;;;;;21.45;13.73;;;11.10;99.90;;;;;;5092732;28;20032;-64
2022/03/17 00:24:38;;;;;;;20.52;13.95;;;11.20;99.90;;;;;;5093930;28;20484;-64
2022/03/17 00:27:05;;;;;;;21.92;14.85;;;11.10;99.90;;;;;;5080921;28;20538;-63
2022/03/17 00:29:36;;;;;;;21.00;15.05;;;11.00;99.90;;;;;;5114150;28;20043;-63
2022/03/17 00:32:02;;;;;;;23.95;13.80;;;10.80;99.90;;;;;;5114084;28;20096;-64
2022/03/17 00:34:28;;;;;;;20.63;13.82;;;10.80;99.90;;;;;;5113263;28;20085;-63
2022/03/17 00:36:54;;;;;;;19.60;13.68;;;11.60;99.90;;;;;;5112413;28;20039;-63
2022/03/17 00:39:20;;;;;;;20.40;14.27;;;11.00;99.90;;;;;;5113835;28;20039;-64
2022/03/17 00:41:46;;;;;;;21.02;13.40;;;11.00;99.90;;;;;;5105699;28;20032;-63
2022/03/17 00:44:12;;;;;;;20.70;14.52;;;10.40;99.90;;;;;;5092088;28;20050;-64
2022/03/17 00:46:39;;;;;;;23.20;14.40;;;10.70;99.90;;;;;;5093687;28;20040;-63
2022/03/17 00:49:04;;;;;;;20.33;14.68;;;11.50;99.90;;;;;;5091382;28;20481;-63
2022/03/17 00:51:30;;;;;;;24.63;16.15;;;11.20;99.90;;;;;;5091964;28;20116;-63
2022/03/17 00:53:56;;;;;;;21.73;15.20;;;10.90;99.90;;;;;;5090988;28;20047;-63
2022/03/17 00:56:22;;;;;;;22.48;14.02;;;11.10;99.90;;;;;;5096834;28;20078;-63
2022/03/17 00:58:49;;;;;;;19.27;13.85;;;10.90;99.90;;;;;;5113507;28;20063;-64
2022/03/17 01:01:18;;;;;;;24.55;15.77;;;12.40;99.90;;;;;;5112738;28;20073;-63
2022/03/17 01:03:45;;;;;;;22.75;15.68;;;10.80;99.90;;;;;;5112309;28;20039;-63
2022/03/17 01:06:11;;;;;;;25.40;14.65;;;11.10;99.90;;;;;;5111194;28;20523;-63
2022/03/17 01:08:38;;;;;;;21.15;14.40;;;12.30;99.90;;;;;;5111460;28;20047;-64
2022/03/17 01:11:04;;;;;;;24.50;15.65;;;10.80;99.90;;;;;;5113118;28;20093;-63
2022/03/17 01:13:31;;;;;;;24.17;15.55;;;10.60;99.90;;;;;;5113244;28;20118;-64
2022/03/17 01:15:56;;;;;;;25.67;16.20;;;10.90;99.90;;;;;;5112690;28;20036;-63
2022/03/17 01:18:22;;;;;;;25.80;17.48;;;10.80;99.90;;;;;;5113799;28;20084;-63
2022/03/17 01:20:49;;;;;;;24.05;16.40;;;10.60;99.90;;;;;;5112074;28;20035;-64
2022/03/17 01:23:14;;;;;;;25.02;16.95;;;11.20;99.90;;;;;;5111430;28;20051;-63
2022/03/17 01:25:40;;;;;;;24.27;17.02;;;10.50;99.90;;;;;;5111598;28;20031;-63
2022/03/17 01:28:06;;;;;;;30.67;18.58;;;10.50;99.90;;;;;;5112102;28;20051;-63
2022/03/17 01:30:31;;;;;;;21.52;14.70;;;10.50;99.90;;;;;;5112148;28;20085;-64
2022/03/17 01:32:57;;;;;;;24.08;16.17;;;10.70;99.90;;;;;;5113492;28;20108;-63
2022/03/17 01:35:23;;;;;;;23.10;16.58;;;11.10;99.90;;;;;;5112109;28;20035;-63
2022/03/17 01:37:48;;;;;;;24.35;16.65;;;10.50;99.90;;;;;;5111112;28;20040;-63
2022/03/17 01:40:14;;;;;;;23.45;16.05;;;10.40;99.90;;;;;;5103841;28;20051;-64
2022/03/17 01:42:40;;;;;;;21.80;15.35;;;10.50;99.90;;;;;;5092499;28;20040;-63
2022/03/17 01:45:07;;;;;;;28.73;17.13;;;10.40;99.90;;;;;;5073785;28;20048;-63
2022/03/17 01:47:33;;;;;;;22.98;16.05;;;10.40;99.90;;;;;;5093238;28;20068;-64
2022/03/17 01:50:11;;;;;;;25.90;18.25;;;10.60;99.90;;;;;;5092470;28;20036;-63
2022/03/17 01:52:38;;;;;;;24.67;17.48;;;10.50;99.90;;;;;;5091780;28;20067;-63
2022/03/17 01:55:05;;;;;;;26.15;17.50;;;10.50;99.90;;;;;;5092316;28;20118;-63
2022/03/17 01:57:31;;;;;;;23.88;16.20;;;10.40;99.90;;;;;;5091407;28;20044;-63
2022/03/17 01:59:58;;;;;;;26.60;16.67;;;10.40;99.90;;;;;;5092306;28;20416;-64
2022/03/17 02:02:25;;;;;;;24.73;16.42;;;11.00;99.90;;;;;;5101846;28;20040;-63
2022/03/17 02:04:51;;;;;;;27.73;18.05;;;10.50;99.90;;;;;;5110865;28;20048;-64
2022/03/17 02:07:17;;;;;;;25.05;17.15;;;10.60;99.90;;;;;;5111993;28;20119;-63
2022/03/17 02:09:44;;;;;;;24.15;16.35;;;11.10;99.90;;;;;;5092398;28;20169;-63
2022/03/17 02:15:07;;;;;;;27.15;17.92;;;11.20;99.90;;;;;;5092121;28;20036;-64
2022/03/17 02:17:39;;;;;;;25.40;18.98;;;10.40;99.90;;;;;;5091669;28;20044;-64
2022/03/17 02:20:07;;;;;;;24.92;17.55;;;10.50;99.90;;;;;;5092040;28;20081;-64
2022/03/17 02:22:36;;;;;;;30.40;19.65;;;10.30;99.90;;;;;;5092375;28;20087;-63
2022/03/17 02:27:49;;;;;;;28.63;18.87;;;10.30;99.90;;;;;;5091161;28;20050;-63
2022/03/17 02:30:17;;;;;;;27.55;18.55;;;10.40;99.90;;;;;;5092139;28;20044;-63
2022/03/17 02:32:44;;;;;;;25.30;17.98;;;10.50;99.90;;;;;;5090323;28;20063;-64
2022/03/17 02:35:14;;;;;;;28.45;18.48;;;10.60;99.90;;;;;;5090867;28;20040;-64
2022/03/17 02:37:40;;;;;;;26.98;18.30;;;12.00;99.90;;;;;;5110766;28;20048;-63
2022/03/17 02:40:09;;;;;;;28.77;19.73;;;11.10;99.90;;;;;;5111891;28;20047;-64
2022/03/17 02:42:35;;;;;;;28.27;20.17;;;10.30;99.90;;;;;;5112666;28;20043;-63
2022/03/17 02:45:04;;;;;;;26.50;17.95;;;10.60;99.90;;;;;;5111078;28;20473;-63
2022/03/17 02:47:29;;;;;;;25.52;18.67;;;10.30;99.90;;;;;;5111527;28;20051;-64
2022/03/17 02:49:55;;;;;;;30.33;20.35;;;11.10;99.90;;;;;;5111314;28;20039;-63
2022/03/17 02:52:22;;;;;;;25.65;18.80;;;10.60;99.90;;;;;;5110395;28;20548;-63
2022/03/17 02:54:49;;;;;;;27.73;18.33;;;10.50;99.90;;;;;;5109984;28;20042;-63
2022/03/17 02:57:15;;;;;;;30.63;20.70;;;10.60;99.90;;;;;;5111193;28;20040;-63
2022/03/17 02:59:41;;;;;;;26.63;19.30;;;10.30;99.90;;;;;;5112325;28;20043;-63
2022/03/17 03:02:06;;;;;;;27.65;19.15;;;11.60;99.90;;;;;;5111511;28;20156;-63
2022/03/17 03:04:36;;;;;;;31.98;20.42;;;10.50;99.90;;;;;;5111407;28;20116;-63
2022/03/17 03:07:02;;;;;;;28.38;19.48;;;10.40;99.90;;;;;;5091654;28;20497;-63
2022/03/17 03:09:29;;;;;;;28.33;20.55;;;10.50;99.90;;;;;;5090670;28;20036;-63
2022/03/17 03:11:55;;;;;;;30.35;21.27;;;10.80;99.90;;;;;;5090535;28;20043;-63
2022/03/17 03:14:21;;;;;;;29.58;20.38;;;10.80;99.90;;;;;;5091734;28;20067;-64
2022/03/17 03:16:48;;;;;;;27.83;21.33;;;11.10;99.90;;;;;;5092759;28;20093;-63
2022/03/17 03:19:14;;;;;;;28.88;20.83;;;10.70;99.90;;;;;;5095365;28;20079;-64
2022/03/17 03:21:39;;;;;;;32.65;21.02;;;10.70;99.90;;;;;;5112925;28;20039;-63
2022/03/17 03:24:05;;;;;;;31.92;21.52;;;11.00;99.90;;;;;;5113517;28;20047;-63
2022/03/17 03:26:31;;;;;;;29.30;21.08;;;10.50;99.90;;;;;;5115780;28;20084;-63
2022/03/17 03:28:56;;;;;;;34.08;21.50;;;10.60;99.90;;;;;;5110469;28;20504;-63
2022/03/17 03:31:22;;;;;;;33.53;22.83;;;11.00;99.90;;;;;;5095155;28;20127;-63
2022/03/17 03:33:49;;;;;;;31.98;22.13;;;10.90;99.90;;;;;;5102566;28;20032;-64
2022/03/17 03:39:00;;;;;;;33.95;23.00;;;10.70;99.90;;;;;;5114124;28;20547;-63
2022/03/17 03:41:26;;;;;;;35.25;24.35;;;11.30;99.90;;;;;;5113800;28;20144;-64
2022/03/17 03:43:51;;;;;;;42.08;27.33;;;10.20;99.90;;;;;;5113053;28;20381;-64
2022/03/17 03:46:17;;;;;;;34.72;22.98;;;10.10;99.90;;;;;;5099551;28;20052;-64
2022/03/17 03:48:43;;;;;;;35.67;24.33;;;9.70;99.90;;;;;;5093744;28;20044;-64
2022/03/17 03:51:08;;;;;;;37.22;25.50;;;9.90;99.90;;;;;;5093457;28;20051;-64
2022/03/17 03:56:18;;;;;;;37.33;26.30;;;10.00;99.90;;;;;;5093252;28;20048;-64
2022/03/17 03:58:43;;;;;;;38.30;27.05;;;11.00;99.90;;;;;;5095312;28;20484;-64
2022/03/17 04:01:09;;;;;;;41.35;29.83;;;9.80;99.90;;;;;;5094354;28;20039;-64
2022/03/17 04:03:35;;;;;;;43.97;28.73;;;9.90;99.90;;;;;;5094745;28;20392;-64
2022/03/17 04:06:01;;;;;;;43.85;29.38;;;9.70;99.90;;;;;;5093580;28;20119;-64
2022/03/17 04:08:26;;;;;;;45.60;29.25;;;9.30;99.90;;;;;;5094351;28;20051;-64
2022/03/17 04:10:52;;;;;;;43.38;28.45;;;10.00;99.90;;;;;;5093595;28;20544;-64
2022/03/17 04:13:17;;;;;;;49.97;31.73;;;9.70;99.90;;;;;;5092713;28;20122;-64
2022/03/17 04:15:43;;;;;;;44.95;31.73;;;9.40;99.90;;;;;;5094245;28;20029;-64
2022/03/17 04:18:09;;;;;;;48.25;31.67;;;;;;;;;;5093452;28;20032;-64
2022/03/17 04:20:35;;;;;;;44.40;31.73;;;9.70;99.90;;;;;;5092845;28;20484;-64
2022/03/17 04:23:00;;;;;;;49.47;31.77;;;9.50;99.90;;;;;;5093954;28;20047;-64
2022/03/17 04:25:26;;;;;;;44.28;30.50;;;9.90;99.90;;;;;;5094793;28;20429;-64
2022/03/17 04:27:52;;;;;;;42.65;28.25;;;9.80;99.90;;;;;;5112974;28;20122;-64
2022/03/17 04:30:18;;;;;;;34.25;22.27;;;9.70;99.90;;;;;;5114745;28;20053;-64
2022/03/17 04:32:43;;;;;;;25.63;14.73;;;9.70;99.90;;;;;;5111937;28;20419;-64
2022/03/17 04:35:09;;;;;;;20.02;13.23;;;9.70;99.90;;;;;;5112769;28;20066;-64
2022/03/17 04:37:35;;;;;;;17.85;10.27;;;9.50;99.90;;;;;;5114360;28;20042;-64
2022/03/17 04:40:02;;;;;;;13.82;8.32;;;9.40;99.90;;;;;;5111780;28;20039;-64
2022/03/17 04:42:28;;;;;;;13.82;8.30;;;9.20;99.90;;;;;;5113921;28;20044;-64
2022/03/17 04:44:55;;;;;;;14.52;9.20;;;9.00;99.90;;;;;;5113212;28;20090;-64
2022/03/17 04:47:21;;;;;;;13.40;7.43;;;8.90;99.90;;;;;;5111777;28;20054;-63
2022/03/17 04:49:47;;;;;;;13.05;7.32;;;8.80;99.90;;;;;;5113796;28;20044;-63
2022/03/17 04:54:57;;;;;;;11.68;7.10;;;8.60;99.90;;;;;;5110207;28;20044;-63
2022/03/17 04:57:24;;;;;;;10.02;7.03;;;8.50;99.90;;;;;;5093064;28;20362;-63
2022/03/17 04:59:50;;;;;;;11.80;7.22;;;8.30;99.90;;;;;;5093156;28;20149;-63
2022/03/17 05:02:16;;;;;;;11.82;6.72;;;8.60;99.90;;;;;;5091288;28;20043;-63
2022/03/17 05:04:42;;;;;;;9.75;6.50;;;8.20;99.90;;;;;;5093329;28;20043;-63
2022/03/17 05:07:07;;;;;;;15.88;7.43;;;8.80;99.90;;;;;;5107489;28;20110;-63
2022/03/17 05:09:33;;;;;;;14.65;7.78;;;8.40;99.90;;;;;;5112955;28;20503;-63
2022/03/17 05:11:58;;;;;;;12.35;7.43;;;8.30;99.90;;;;;;5112817;28;20039;-63
2022/03/17 05:14:24;;;;;;;17.45;8.55;;;8.50;99.90;;;;;;5096099;28;20075;-63
2022/03/17 05:16:50;;;;;;;18.27;10.65;;;8.80;99.90;;;;;;5092660;28;20048;-63
2022/03/17 05:19:15;;;;;;;17.20;8.95;;;8.40;99.90;;;;;;5091527;28;20430;-63
2022/03/17 05:21:41;;;;;;;22.20;10.27;;;8.20;99.90;;;;;;5091628;28;20502;-63
2022/03/17 05:24:07;;;;;;;21.83;11.65;;;8.40;99.90;;;;;;5104574;28;20048;-63
2022/03/17 05:26:33;;;;;;;20.63;10.45;;;8.30;99.90;;;;;;5113428;28;20047;-63
2022/03/17 05:28:58;;;;;;;21.98;10.35;;;9.30;99.90;;;;;;5108074;28;20113;-63
2022/03/17 05:31:24;;;;;;;21.27;9.35;;;8.30;99.90;;;;;;5111691;28;20345;-63
2022/03/17 05:33:49;;;;;;;18.17;7.40;;;8.60;99.90;;;;;;5112828;28;20036;-63
2022/03/17 05:36:15;;;;;;;18.35;6.78;;;8.20;99.90;;;;;;5110666;28;20043;-63
2022/03/17 05:38:41;;;;;;;15.00;6.10;;;8.00;99.90;;;;;;5111300;28;20480;-63
2022/03/17 05:41:07;;;;;;;14.77;5.22;;;9.10;99.90;;;;;;5111606;28;20124;-63
2022/03/17 05:43:32;;;;;;;12.88;3.90;;;8.50;99.90;;;;;;5111711;28;20111;-63
2022/03/17 05:45:58;;;;;;;14.40;4.30;;;8.00;99.90;;;;;;5112914;28;20164;-63
2022/03/17 05:48:24;;;;;;;14.82;5.05;;;7.90;99.90;;;;;;5111627;28;20043;-63
2022/03/17 05:50:50;;;;;;;12.43;4.60;;;8.00;99.90;;;;;;5111857;28;20039;-63
2022/03/17 05:53:16;;;;;;;13.55;4.55;;;7.90;99.90;;;;;;5111169;28;20056;-63
2022/03/17 05:55:42;;;;;;;18.00;5.03;;;8.20;99.90;;;;;;5112250;28;20042;-63
2022/03/17 05:58:08;;;;;;;12.32;4.68;;;8.40;99.90;;;;;;5091277;28;20031;-63
2022/03/17 06:00:35;;;;;;;10.95;4.05;;;7.80;99.90;;;;;;5091180;28;20397;-63
2022/03/17 06:03:01;;;;;;;16.17;4.65;;;8.00;99.90;;;;;;5092169;28;20109;-63
2022/03/17 06:05:28;;;;;;;15.70;4.90;;;7.90;99.90;;;;;;5091479;28;20481;-63
2022/03/17 06:07:59;;;;;;;27.92;5.35;;;7.90;99.90;;;;;;5092054;28;20040;-63
2022/03/17 06:10:27;;;;;;;11.60;3.78;;;7.90;99.90;;;;;;5092263;28;20048;-63
2022/03/17 06:12:53;;;;;;;10.57;3.80;;;7.80;99.90;;;;;;5100780;28;20040;-63
2022/03/17 06:15:20;;;;;;;10.75;3.50;;;7.90;99.90;;;;;;5091162;28;20118;-63
2022/03/17 06:17:51;;;;;;;10.07;3.65;;;8.30;99.90;;;;;;5091498;28;20028;-63
2022/03/17 06:20:22;;;;;;;8.23;2.63;;;8.00;99.90;;;;;;5106705;28;20107;-63
2022/03/17 06:22:50;;;;;;;10.80;2.88;;;8.60;99.90;;;;;;5106655;28;20036;-63
2022/03/17 06:25:19;;;;;;;11.95;2.47;;;7.80;99.90;;;;;;5111988;28;20160;-63
2022/03/17 06:27:46;;;;;;;9.27;2.08;;;7.70;99.90;;;;;;5105158;28;20401;-64
2022/03/17 06:30:17;;;;;;;4.50;1.73;;;7.80;99.90;;;;;;5104339;28;20044;-63
2022/03/17 06:32:43;;;;;;;8.77;2.10;;;7.80;99.90;;;;;;5110847;28;20038;-63
2022/03/17 06:35:17;;;;;;;7.07;2.17;;;7.80;99.90;;;;;;5091874;28;20039;-63
2022/03/17 06:37:55;;;;;;;7.95;1.58;;;7.70;99.90;;;;;;5096154;28;20030;-63
2022/03/17 06:40:22;;;;;;;9.35;2.08;;;7.90;99.90;;;;;;5109645;28;20055;-63
2022/03/17 06:42:49;;;;;;;8.27;2.10;;;7.80;99.90;;;;;;5102294;28;20093;-63
2022/03/17 06:45:16;;;;;;;11.88;2.53;;;7.90;99.90;;;;;;5091645;28;20048;-63
2022/03/17 06:47:42;;;;;;;8.93;2.25;;;7.70;99.90;;;;;;5089881;28;20121;-63
2022/03/17 06:50:09;;;;;;;8.02;1.98;;;7.90;99.90;;;;;;5090465;28;20101;-63
2022/03/17 06:52:36;;;;;;;10.20;2.53;;;7.70;99.90;;;;;;5095088;28;20055;-63
2022/03/17 06:55:02;;;;;;;9.63;2.88;;;8.60;99.90;;;;;;5093344;28;20485;-63
2022/03/17 06:57:27;;;;;;;9.35;2.53;;;7.70;99.90;;;;;;5094530;28;20431;-63
2022/03/17 06:59:53;;;;;;;9.55;3.15;;;8.00;99.90;;;;;;5096282;28;20065;-63
2022/03/17 07:02:19;;;;;;;12.43;3.47;;;7.80;99.90;;;;;;5105378;28;20110;-63
2022/03/17 07:04:46;;;;;;;17.80;3.00;;;7.80;99.90;;;;;;5114078;28;20049;-63
2022/03/17 07:07:11;;;;;;;12.20;4.65;;;9.00;99.90;;;;;;5112740;28;20043;-63
2022/03/17 07:09:37;;;;;;;14.13;2.80;;;7.90;99.90;;;;;;5110247;28;20040;-63
2022/03/17 07:12:04;;;;;;;11.55;2.47;;;7.70;99.90;;;;;;5106511;28;20039;-63
2022/03/17 07:14:30;;;;;;;9.57;2.72;;;7.60;99.90;;;;;;5106980;28;20105;-63
2022/03/17 07:16:56;;;;;;;11.65;2.47;;;8.30;99.90;;;;;;5113737;28;20476;-64
2022/03/17 07:19:22;;;;;;;10.00;2.88;;;7.90;99.90;;;;;;5102388;28;20485;-63
2022/03/17 07:21:48;;;;;;;13.13;3.03;;;7.60;99.90;;;;;;5079969;28;20048;-63
2022/03/17 07:24:14;;;;;;;6.93;1.73;;;7.60;99.90;;;;;;5093624;28;20039;-63
2022/03/17 07:26:40;;;;;;;10.40;2.42;;;7.80;99.90;;;;;;5127526;27;20040;-63
2022/03/17 07:29:07;;;;;;;10.02;2.20;;;8.00;99.90;;;;;;5094082;28;20180;-63
2022/03/17 07:31:33;;;;;;;12.60;2.10;;;7.90;99.90;;;;;;5111340;28;20042;-63
2022/03/17 07:33:59;;;;;;;11.45;2.63;;;7.80;99.90;;;;;;5112008;28;20039;-63
2022/03/17 07:36:26;;;;;;;10.40;2.42;;;8.30;99.90;;;;;;5083046;28;20434;-63
2022/03/17 07:38:54;;;;;;;15.50;3.08;;;7.90;99.90;;;;;;5108928;28;20118;-63
2022/03/17 07:41:19;;;;;;;13.85;2.90;;;8.40;99.90;;;;;;5114823;28;20415;-64
2022/03/17 07:43:46;;;;;;;9.80;2.53;;;7.60;99.90;;;;;;5098542;28;20056;-64
2022/03/17 07:46:13;;;;;;;19.02;3.38;;;8.00;99.90;;;;;;5100653;28;20123;-63
2022/03/17 07:48:39;;;;;;;15.57;2.58;;;7.80;99.90;;;;;;5114353;28;20505;-64
2022/03/17 07:51:04;;;;;;;16.00;3.55;;;7.80;99.90;;;;;;5111092;28;20039;-63
2022/03/17 07:53:30;;;;;;;13.98;3.30;;;8.20;99.90;;;;;;5101326;28;20059;-63
2022/03/17 07:55:57;;;;;;;20.30;4.10;;;7.90;99.90;;;;;;5111942;28;20074;-64
2022/03/17 07:58:24;;;;;;;14.23;3.28;;;7.90;99.90;;;;;;5113185;28;20107;-63
2022/03/17 08:00:56;;;;;;;16.10;4.13;;;7.90;99.90;;;;;;5095221;28;20036;-64
2022/03/17 08:03:22;;;;;;;15.10;3.33;;;8.00;99.90;;;;;;5093194;28;20048;-64
2022/03/17 08:05:48;;;;;;;11.02;2.20;;;7.90;99.90;;;;;;5094395;28;20058;-63
2022/03/17 08:08:15;;;;;;;8.18;2.05;;;8.40;99.90;;;;;;5095622;28;20123;-63
2022/03/17 08:10:40;;;;;;;9.15;1.85;;;7.90;99.90;;;;;;5099638;28;20047;-64
2022/03/17 08:13:08;;;;;;;7.57;2.00;;;8.20;99.90;;;;;;5099420;28;20048;-64
2022/03/17 08:15:38;;;;;;;11.95;3.25;;;7.90;99.90;;;;;;5093868;28;20043;-63
2022/03/17 08:18:04;;;;;;;12.32;1.98;;;7.90;99.90;;;;;;5100544;28;20051;-63
2022/03/17 08:20:30;;;;;;;10.88;2.78;;;7.80;99.90;;;;;;5101915;28;20070;-64
2022/03/17 08:22:56;;;;;;;16.08;3.65;;;7.70;99.90;;;;;;5108508;28;20384;-63
2022/03/17 08:25:22;;;;;;;17.83;3.75;;;8.00;99.90;;;;;;5095882;28;20032;-64
2022/03/17 08:27:50;;;;;;;13.63;3.90;;;7.90;99.90;;;;;;5088423;28;20040;-63
2022/03/17 08:30:16;;;;;;;10.10;2.58;;;7.80;99.90;;;;;;5102614;28;20043;-64
2022/03/17 08:32:42;;;;;;;9.05;2.60;;;7.80;99.90;;;;;;5100087;28;20365;-64
2022/03/17 08:35:09;;;;;;;7.28;2.10;;;7.80;99.90;;;;;;5092176;28;20044;-63
2022/03/17 08:37:43;;;;;;;11.57;2.33;;;7.90;99.90;;;;;;5094902;28;20086;-63
2022/03/17 08:40:10;;;;;;;8.98;2.38;;;7.90;99.90;;;;;;5098212;28;20050;-64
2022/03/17 08:42:36;;;;;;;12.90;3.60;;;7.80;99.90;;;;;;5109309;28;20047;-63
2022/03/17 08:49:18;;;;;;;13.25;2.55;;;8.20;99.90;;;;;;5092171;28;20044;-63
2022/03/17 08:50:33;;;;;;;8.63;2.65;;;8.20;99.90;;;;;;5091965;28;20384;-63
2022/03/17 08:52:59;;;;;;;15.95;3.97;;;8.00;99.90;;;;;;5094204;28;20052;-63
2022/03/17 08:55:25;;;;;;;13.18;2.67;;;8.00;99.90;;;;;;5090365;28;20052;-63
2022/03/17 08:57:51;;;;;;;9.95;2.95;;;8.10;99.90;;;;;;5090415;28;20079;-63
2022/03/17 09:00:16;;;;;;;10.15;2.30;;;8.10;99.90;;;;;;5104747;28;20067;-63
2022/03/17 09:02:44;;;;;;;10.40;2.03;;;8.10;99.90;;;;;;5110610;28;20039;-63
2022/03/17 09:05:10;;;;;;;14.93;3.20;;;8.40;99.90;;;;;;5107986;28;20056;-63
2022/03/17 09:07:36;;;;;;;11.68;2.15;;;8.50;99.90;;;;;;5108491;28;20500;-63
2022/03/17 09:10:05;;;;;;;14.95;2.75;;;8.80;99.90;;;;;;5106447;28;20047;-63
2022/03/17 09:12:33;;;;;;;9.63;2.55;;;8.50;99.90;;;;;;5101321;28;20036;-63
2022/03/17 09:14:59;;;;;;;13.88;2.97;;;8.70;99.90;;;;;;5093938;28;20558;-63
2022/03/17 09:17:25;;;;;;;11.55;2.67;;;9.00;99.90;;;;;;5098086;28;20043;-64
2022/03/17 09:19:51;;;;;;;13.15;3.15;;;9.10;99.90;;;;;;5110293;28;20480;-63
2022/03/17 09:22:16;;;;;;;12.05;2.65;;;8.70;99.90;;;;;;5099574;28;20047;-64
2022/03/17 09:24:45;;;;;;;13.68;3.70;;;9.00;99.90;;;;;;5109867;28;20164;-63
2022/03/17 09:27:11;;;;;;;13.40;2.90;;;9.50;99.90;;;;;;5092782;28;20131;-63
2022/03/17 09:29:38;;;;;;;10.63;2.33;;;8.70;99.90;;;;;;5104544;28;20151;-63
2022/03/17 09:32:05;;;;;;;14.30;3.42;;;9.00;99.90;;;;;;5102918;28;20120;-63
2022/03/17 09:34:33;;;;;;;9.73;2.42;;;8.80;99.90;;;;;;5105111;28;20049;-63
2022/03/17 09:37:00;;;;;;;11.15;2.25;;;;;;;;;;5088521;28;20496;-63
2022/03/17 09:42:21;;;;;;;9.43;3.10;;;9.20;99.90;;;;;;5099876;28;20046;-63
2022/03/17 09:44:53;;;;;;;13.57;3.80;;;8.80;99.90;;;;;;5089514;28;20408;-63
2022/03/17 09:47:22;;;;;;;14.15;2.35;;;9.20;99.90;;;;;;5089418;28;20849;-63
2022/03/17 09:49:54;;;;;;;14.73;2.50;;;9.20;99.90;;;;;;5105459;28;20035;-63
2022/03/17 09:52:20;;;;;;;13.73;3.17;;;9.10;99.90;;;;;;5109604;28;20535;-63
2022/03/17 09:54:48;;;;;;;11.45;2.40;;;9.20;99.90;;;;;;5109592;28;20050;-63
2022/03/17 09:57:17;;;;;;;10.60;2.28;;;9.30;99.90;;;;;;5102200;28;20042;-63
2022/03/17 09:59:44;;;;;;;7.90;2.38;;;9.70;99.90;;;;;;5096229;28;20042;-63
2022/03/17 10:02:16;;;;;;;12.77;2.92;;;9.30;99.90;;;;;;5106786;28;20590;-63
2022/03/17 10:04:45;;;;;;;15.52;3.50;;;9.30;99.90;;;;;;5101900;28;20055;-63
2022/03/17 10:07:21;;;;;;;9.57;2.65;;;9.30;99.90;;;;;;5110428;28;20503;-63
2022/03/17 10:09:47;;;;;;;8.45;2.55;;;9.90;99.90;;;;;;5104699;28;20547;-63
2022/03/17 10:12:16;;;;;;;11.60;2.60;;;9.20;99.90;;;;;;5106415;28;20043;-63
2022/03/17 10:14:50;;;;;;;9.07;2.22;;;9.20;99.90;;;;;;5110310;28;20043;-63
2022/03/17 10:17:36;;;;;;;9.35;2.83;;;9.40;99.90;;;;;;5097851;28;20477;-64
2022/03/17 10:20:13;;;;;;;13.20;3.47;;;9.30;99.90;;;;;;5088936;28;20044;-63
2022/03/17 10:22:57;;;;;;;16.25;3.08;;;9.30;99.90;;;;;;5101992;28;20062;-63
2022/03/17 10:25:25;;;;;;;10.43;2.95;;;9.40;99.90;;;;;;5101286;28;20499;-63
2022/03/17 10:27:55;;;;;;;13.07;3.15;;;9.30;99.90;;;;;;5107659;28;20043;-63
2022/03/17 10:30:27;;;;;;;9.60;2.60;;;9.10;99.90;;;;;;5086993;28;20042;-63
2022/03/17 10:32:57;;;;;;;11.90;2.65;;;9.30;99.90;;;;;;5110957;28;20067;-62
2022/03/17 10:35:25;;;;;;;9.60;2.80;;;9.50;99.90;;;;;;5115081;28;20054;-63
2022/03/17 10:37:50;;;;;;;11.50;2.92;;;9.70;99.90;;;;;;5116379;28;20039;-64
2022/03/17 10:40:16;;;;;;;10.05;2.60;;;10.00;99.90;;;;;;5115625;28;20120;-64
2022/03/17 10:42:42;;;;;;;9.98;2.22;;;9.70;99.90;;;;;;5096805;28;20044;-65
2022/03/17 10:45:08;;;;;;;10.77;3.47;;;10.30;99.90;;;;;;5095212;28;20430;-65
2022/03/17 10:47:36;;;;;;;10.85;2.72;;;10.10;99.90;;;;;;5094850;28;20086;-64
2022/03/17 10:50:16;;;;;;;9.70;3.20;;;13.00;99.90;;;;;;5098315;28;20040;-64
2022/03/17 10:52:53;;;;;;;12.05;2.95;;;10.00;99.90;;;;;;5099099;28;20213;-65
2022/03/17 10:55:25;;;;;;;15.30;3.22;;;10.10;99.90;;;;;;5093456;28;20044;-64
2022/03/17 10:57:54;;;;;;;11.80;2.97;;;10.20;99.90;;;;;;5098686;28;20074;-64
2022/03/17 11:00:25;;;;;;;10.00;2.30;;;9.90;99.90;;;;;;5103627;28;20050;-64
2022/03/17 11:02:57;;;;;;;13.55;3.35;;;9.80;99.90;;;;;;5107407;28;20082;-65
2022/03/17 11:05:23;;;;;;;10.90;2.70;;;9.70;99.90;;;;;;5093809;28;20492;-65
2022/03/17 11:07:48;;;;;;;9.40;3.13;;;9.70;99.90;;;;;;5103809;28;20032;-65
2022/03/17 11:10:20;;;;;;;11.68;2.50;;;9.70;99.90;;;;;;5111079;28;20377;-65
2022/03/17 11:12:46;;;;;;;13.02;3.10;;;9.90;99.90;;;;;;5109254;28;20075;-65
2022/03/17 11:15:12;;;;;;;18.27;3.65;;;9.90;99.90;;;;;;5112172;28;20074;-64
2022/03/17 11:17:49;;;;;;;13.45;2.97;;;9.80;99.90;;;;;;5098267;28;20462;-65
2022/03/17 11:20:22;;;;;;;10.80;2.70;;;9.50;99.90;;;;;;5091806;28;20031;-65
2022/03/17 11:23:19;;;;;;;9.73;2.70;;;11.00;99.90;;;;;;5110633;28;20042;-64
2022/03/17 11:25:52;;;;;;;14.50;3.17;;;9.90;99.90;;;;;;5098231;28;20495;-65
2022/03/17 11:28:30;;;;;;;10.15;3.40;;;10.30;99.90;;;;;;5111402;28;20483;-65
2022/03/17 11:31:00;;;;;;;8.90;2.38;;;10.40;99.90;;;;;;5093495;28;20051;-65
2022/03/17 11:33:32;;;;;;;15.52;3.03;;;7.40;99.90;;;;;;5092269;28;20123;-64
2022/03/17 11:36:24;;;;;;;14.77;3.25;;;10.10;99.90;;;;;;5092919;28;20091;-65
2022/03/17 11:38:59;;;;;;;11.98;3.00;;;9.90;99.90;;;;;;5108878;28;20050;-65
2022/03/17 11:41:26;;;;;;;;;;;9.40;99.90;;;;;;5110115;28;20027;-65
2022/03/17 11:43:52;;;;;;;7.85;2.67;;;9.90;99.90;;;;;;5092651;28;20407;-64
2022/03/17 11:46:19;;;;;;;15.25;3.88;;;9.90;99.90;;;;;;5080197;28;20048;-65
2022/03/17 11:48:47;;;;;;;18.05;3.25;;;9.80;99.90;;;;;;5090997;28;20528;-65
2022/03/17 11:51:15;;;;;;;12.82;3.25;;;10.80;99.90;;;;;;5097116;28;20071;-65
2022/03/17 11:53:53;;;;;;;9.98;3.00;;;10.10;99.90;;;;;;5110078;28;20043;-65
2022/03/17 11:56:41;;;;;;;15.27;3.38;;;10.10;99.90;;;;;;5091327;28;20077;-64
2022/03/17 11:59:07;;;;;;;16.95;3.70;;;9.90;99.90;;;;;;5094555;28;20429;-64
2022/03/17 12:01:40;;;;;;;14.50;3.42;;;10.10;99.90;;;;;;5094103;28;20048;-64
2022/03/17 12:04:08;;;;;;;11.95;2.90;;;10.20;99.90;;;;;;5090491;28;20048;-64
2022/03/17 12:06:38;;;;;;;14.65;2.95;;;10.30;99.90;;;;;;5060987;28;20397;-64
2022/03/17 12:09:11;;;;;;;12.90;3.33;;;10.50;99.90;;;;;;5096839;28;20426;-64
2022/03/17 12:11:47;;;;;;;11.15;3.05;;;10.40;99.90;;;;;;5110775;28;20086;-64
2022/03/17 12:16:56;;;;;;;10.95;2.95;;;10.10;99.90;;;;;;5101429;28;20377;-64
2022/03/17 12:19:30;;;;;;;16.13;2.90;;;10.60;99.90;;;;;;5095095;28;20373;-65
2022/03/17 12:21:58;;;;;;;13.32;3.97;;;10.50;99.90;;;;;;5090735;28;20051;-64
2022/03/17 12:24:45;;;;;;;17.63;3.15;;;10.90;99.90;;;;;;5091890;28;20107;-65
2022/03/17 12:27:34;;;;;;;9.68;2.67;;;10.60;99.90;;;;;;5092038;28;20047;-64
2022/03/17 12:30:02;;;;;;;5.95;2.10;;;10.80;99.90;;;;;;5110186;28;20084;-64
2022/03/17 12:32:40;;;;;;;10.35;2.13;;;10.60;99.90;;;;;;5092717;28;20674;-65
2022/03/17 12:35:08;;;;;;;12.00;2.38;;;10.20;99.90;;;;;;5110456;28;20044;-65
2022/03/17 12:37:35;;;;;;;11.13;2.08;;;10.20;99.90;;;;;;5105713;28;20031;-64
2022/03/17 12:40:04;;;;;;;6.63;1.73;;;10.70;99.90;;;;;;5100165;28;20361;-65
2022/03/17 12:42:32;;;;;;;11.75;2.67;;;10.90;99.90;;;;;;5096217;27;20043;-64
2022/03/17 12:45:03;;;;;;;10.30;2.45;;;10.30;99.90;;;;;;5092565;28;20048;-64
2022/03/17 12:47:31;;;;;;;11.05;2.45;;;10.70;99.90;;;;;;5108898;28;20043;-64
2022/03/17 12:49:59;;;;;;;9.98;2.28;;;10.50;99.90;;;;;;5106420;28;20115;-64
2022/03/17 12:52:30;;;;;;;14.00;2.45;;;11.00;99.90;;;;;;5110179;28;20056;-64
2022/03/17 12:54:58;;;;;;;15.30;2.60;;;11.00;99.90;;;;;;5100691;28;20040;-64
2022/03/17 12:57:26;;;;;;;10.85;2.42;;;10.40;99.90;;;;;;5077168;28;20040;-64
2022/03/17 12:59:52;;;;;;;12.57;2.35;;;10.40;99.90;;;;;;5112678;28;20081;-64
2022/03/17 13:02:20;;;;;;;10.07;2.35;;;10.50;99.90;;;;;;5111474;28;20039;-64
2022/03/17 13:04:48;;;;;;;9.50;1.80;;;10.90;99.90;;;;;;5113428;28;20036;-64